sensor_id;sensor_type;location;lat;lon;timestamp;pressure;altitude;pressure_sealevel;temperature;humidity
46045;BME280;31781;54.094;13.428;2023-04-12T00:00:19;101228.16;;;7.91;69.22
46045;BME280;31781;54.094;13.428;2023-04-12T00:02:21;101237.44;;;7.88;69.24
46045;BME280;31781;54.094;13.428;2023-04-12T00:04:23;101226.97;;;7.85;69.21
46045;BME280;31781;54.094;13.428;2023-04-12T00:06:25;101236.13;;;7.84;68.91
46045;BME280;31781;54.094;13.428;2023-04-12T00:08:26;101227.50;;;7.80;69.50
46045;BME280;31781;54.094;13.428;2023-04-12T00:10:28;101232.28;;;7.78;69.39
46045;BME280;31781;54.094;13.428;2023-04-12T00:12:30;101231.78;;;7.75;69.18
46045;BME280;31781;54.094;13.428;2023-04-12T00:14:33;101227.56;;;7.72;69.52
46045;BME280;31781;54.094;13.428;2023-04-12T00:16:35;101227.94;;;7.69;69.05
46045;BME280;31781;54.094;13.428;2023-04-12T00:18:37;101222.88;;;7.66;69.15
46045;BME280;31781;54.094;13.428;2023-04-12T00:20:38;101227.63;;;7.64;69.12
46045;BME280;31781;54.094;13.428;2023-04-12T00:22:40;101217.13;;;7.61;69.65
46045;BME280;31781;54.094;13.428;2023-04-12T00:24:42;101212.09;;;7.58;69.52
46045;BME280;31781;54.094;13.428;2023-04-12T00:26:44;101207.88;;;7.56;69.51
46045;BME280;31781;54.094;13.428;2023-04-12T00:28:46;101204.69;;;7.52;69.83
46045;BME280;31781;54.094;13.428;2023-04-12T00:30:50;101198.78;;;7.49;69.28
46045;BME280;31781;54.094;13.428;2023-04-12T00:32:52;101206.22;;;7.47;69.86
46045;BME280;31781;54.094;13.428;2023-04-12T00:34:54;101202.00;;;7.44;69.36
46045;BME280;31781;54.094;13.428;2023-04-12T00:36:55;101195.09;;;7.42;69.35
46045;BME280;31781;54.094;13.428;2023-04-12T00:38:58;101187.13;;;7.40;69.46
46045;BME280;31781;54.094;13.428;2023-04-12T00:41:00;101191.06;;;7.38;69.80
46045;BME280;31781;54.094;13.428;2023-04-12T00:43:02;101184.97;;;7.35;69.18
46045;BME280;31781;54.094;13.428;2023-04-12T00:45:04;101192.44;;;7.33;69.15
46045;BME280;31781;54.094;13.428;2023-04-12T00:47:08;101191.59;;;7.33;69.37
46045;BME280;31781;54.094;13.428;2023-04-12T00:49:10;101199.91;;;7.31;69.70
46045;BME280;31781;54.094;13.428;2023-04-12T00:51:11;101196.66;;;7.28;69.25
46045;BME280;31781;54.094;13.428;2023-04-12T00:53:13;101196.88;;;7.26;68.99
46045;BME280;31781;54.094;13.428;2023-04-12T00:55:15;101206.00;;;7.25;68.96
46045;BME280;31781;54.094;13.428;2023-04-12T00:57:17;101204.50;;;7.23;69.27
46045;BME280;31781;54.094;13.428;2023-04-12T00:59:18;101202.16;;;7.20;69.58
46045;BME280;31781;54.094;13.428;2023-04-12T01:01:21;101202.31;;;7.18;69.16
46045;BME280;31781;54.094;13.428;2023-04-12T01:03:24;101199.97;;;7.15;69.67
46045;BME280;31781;54.094;13.428;2023-04-12T01:05:27;101194.06;;;7.12;69.82
46045;BME280;31781;54.094;13.428;2023-04-12T01:07:36;101195.91;;;7.11;69.30
46045;BME280;31781;54.094;13.428;2023-04-12T01:09:49;101187.31;;;7.08;69.06
46045;BME280;31781;54.094;13.428;2023-04-12T01:12:01;101186.66;;;7.06;69.48
46045;BME280;31781;54.094;13.428;2023-04-12T01:14:11;101183.44;;;7.02;69.32
46045;BME280;31781;54.094;13.428;2023-04-12T01:16:21;101176.50;;;7.00;69.48
46045;BME280;31781;54.094;13.428;2023-04-12T01:18:29;101172.31;;;6.97;69.65
46045;BME280;31781;54.094;13.428;2023-04-12T01:20:38;101173.69;;;6.93;69.14
46045;BME280;31781;54.094;13.428;2023-04-12T01:22:58;101173.00;;;6.91;68.48
46045;BME280;31781;54.094;13.428;2023-04-12T01:25:18;101171.84;;;6.85;68.75
46045;BME280;31781;54.094;13.428;2023-04-12T01:27:33;101168.66;;;6.82;69.14
46045;BME280;31781;54.094;13.428;2023-04-12T01:29:40;101161.03;;;6.77;69.86
46045;BME280;31781;54.094;13.428;2023-04-12T01:31:49;101164.09;;;6.74;69.52
46045;BME280;31781;54.094;13.428;2023-04-12T01:33:53;101168.00;;;6.72;69.72
46045;BME280;31781;54.094;13.428;2023-04-12T01:35:58;101163.78;;;6.69;69.62
46045;BME280;31781;54.094;13.428;2023-04-12T01:38:00;101161.63;;;6.65;70.70
46045;BME280;31781;54.094;13.428;2023-04-12T01:40:03;101160.94;;;6.63;70.79
46045;BME280;31781;54.094;13.428;2023-04-12T01:42:05;101164.84;;;6.60;70.96
46045;BME280;31781;54.094;13.428;2023-04-12T01:44:08;101161.63;;;6.57;70.60
46045;BME280;31781;54.094;13.428;2023-04-12T01:46:14;101161.97;;;6.54;70.10
46045;BME280;31781;54.094;13.428;2023-04-12T01:48:17;101171.44;;;6.50;70.54
46045;BME280;31781;54.094;13.428;2023-04-12T01:50:22;101168.06;;;6.48;70.98
46045;BME280;31781;54.094;13.428;2023-04-12T01:52:30;101169.25;;;6.45;70.31
46045;BME280;31781;54.094;13.428;2023-04-12T01:54:36;101173.16;;;6.43;70.83
46045;BME280;31781;54.094;13.428;2023-04-12T01:56:42;101161.84;;;6.39;70.38
46045;BME280;31781;54.094;13.428;2023-04-12T01:58:46;101162.00;;;6.38;71.04
46045;BME280;31781;54.094;13.428;2023-04-12T02:00:50;101161.34;;;6.35;71.03
46045;BME280;31781;54.094;13.428;2023-04-12T02:02:53;101164.38;;;6.32;70.92
46045;BME280;31781;54.094;13.428;2023-04-12T02:04:56;101156.59;;;6.29;70.48
46045;BME280;31781;54.094;13.428;2023-04-12T02:06:59;101155.94;;;6.27;71.29
46045;BME280;31781;54.094;13.428;2023-04-12T02:09:02;101150.03;;;6.24;71.42
46045;BME280;31781;54.094;13.428;2023-04-12T02:11:08;101146.66;;;6.22;70.62
46045;BME280;31781;54.094;13.428;2023-04-12T02:13:10;101151.41;;;6.20;71.02
46045;BME280;31781;54.094;13.428;2023-04-12T02:15:11;101143.63;;;6.17;71.26
46045;BME280;31781;54.094;13.428;2023-04-12T02:17:14;101142.94;;;6.15;71.29
46045;BME280;31781;54.094;13.428;2023-04-12T02:19:16;101139.59;;;6.13;70.54
46045;BME280;31781;54.094;13.428;2023-04-12T02:21:18;101135.34;;;6.10;71.39
46045;BME280;31781;54.094;13.428;2023-04-12T02:23:20;101142.78;;;6.08;71.19
46045;BME280;31781;54.094;13.428;2023-04-12T02:25:21;101135.03;;;6.05;71.12
46045;BME280;31781;54.094;13.428;2023-04-12T02:27:23;101135.19;;;6.04;71.28
46045;BME280;31781;54.094;13.428;2023-04-12T02:29:25;101130.97;;;6.01;71.09
46045;BME280;31781;54.094;13.428;2023-04-12T02:31:27;101121.34;;;5.99;71.51
46045;BME280;31781;54.094;13.428;2023-04-12T02:33:31;101133.19;;;5.98;70.83
46045;BME280;31781;54.094;13.428;2023-04-12T02:35:34;101125.44;;;5.95;71.07
46045;BME280;31781;54.094;13.428;2023-04-12T02:37:36;101120.34;;;5.92;70.88
46045;BME280;31781;54.094;13.428;2023-04-12T02:39:37;101110.72;;;5.89;71.38
46045;BME280;31781;54.094;13.428;2023-04-12T02:41:39;101118.19;;;5.87;71.02
46045;BME280;31781;54.094;13.428;2023-04-12T02:43:41;101113.06;;;5.84;70.73
46045;BME280;31781;54.094;13.428;2023-04-12T02:45:42;101112.41;;;5.82;70.80
46045;BME280;31781;54.094;13.428;2023-04-12T02:47:44;101112.56;;;5.80;71.02
46045;BME280;31781;54.094;13.428;2023-04-12T02:49:48;101111.88;;;5.78;71.26
46045;BME280;31781;54.094;13.428;2023-04-12T02:51:50;101105.81;;;5.76;70.93
46045;BME280;31781;54.094;13.428;2023-04-12T02:53:51;101105.97;;;5.75;71.47
46045;BME280;31781;54.094;13.428;2023-04-12T02:55:53;101104.47;;;5.72;71.24
46045;BME280;31781;54.094;13.428;2023-04-12T02:57:55;101102.78;;;5.71;71.22
46045;BME280;31781;54.094;13.428;2023-04-12T02:59:56;101108.53;;;5.68;71.83
46045;BME280;31781;54.094;13.428;2023-04-12T03:01:58;101105.81;;;5.68;71.94
46045;BME280;31781;54.094;13.428;2023-04-12T03:04:00;101108.88;;;5.65;71.76
46045;BME280;31781;54.094;13.428;2023-04-12T03:06:05;101109.03;;;5.64;72.05
46045;BME280;31781;54.094;13.428;2023-04-12T03:08:06;101106.66;;;5.61;72.04
46045;BME280;31781;54.094;13.428;2023-04-12T03:10:09;101107.66;;;5.60;71.75
46045;BME280;31781;54.094;13.428;2023-04-12T03:12:11;101105.13;;;5.58;72.21
46045;BME280;31781;54.094;13.428;2023-04-12T03:14:13;101091.97;;;5.55;71.96
46045;BME280;31781;54.094;13.428;2023-04-12T03:16:23;101090.31;;;5.54;71.63
46045;BME280;31781;54.094;13.428;2023-04-12T03:18:25;101095.00;;;5.52;72.08
46045;BME280;31781;54.094;13.428;2023-04-12T03:20:27;101090.63;;;5.51;71.58
46045;BME280;31781;54.094;13.428;2023-04-12T03:22:30;101092.66;;;5.49;72.34
46045;BME280;31781;54.094;13.428;2023-04-12T03:24:32;101082.84;;;5.48;71.71
46045;BME280;31781;54.094;13.428;2023-04-12T03:26:34;101087.41;;;5.48;72.22
46045;BME280;31781;54.094;13.428;2023-04-12T03:28:35;101081.34;;;5.46;71.60
46045;BME280;31781;54.094;13.428;2023-04-12T03:30:38;101082.34;;;5.45;71.33
46045;BME280;31781;54.094;13.428;2023-04-12T03:32:40;101079.84;;;5.43;71.78
46045;BME280;31781;54.094;13.428;2023-04-12T03:34:42;101089.09;;;5.40;72.20
46045;BME280;31781;54.094;13.428;2023-04-12T03:36:44;101091.13;;;5.38;72.54
46045;BME280;31781;54.094;13.428;2023-04-12T03:38:47;101085.03;;;5.36;71.85
46045;BME280;31781;54.094;13.428;2023-04-12T03:40:49;101084.38;;;5.34;71.60
46045;BME280;31781;54.094;13.428;2023-04-12T03:42:51;101082.69;;;5.33;72.20
46045;BME280;31781;54.094;13.428;2023-04-12T03:44:53;101081.16;;;5.31;71.58
46045;BME280;31781;54.094;13.428;2023-04-12T03:46:54;101080.47;;;5.29;71.56
46045;BME280;31781;54.094;13.428;2023-04-12T03:48:56;101070.88;;;5.26;71.72
46045;BME280;31781;54.094;13.428;2023-04-12T03:50:58;101077.28;;;5.25;71.74
46045;BME280;31781;54.094;13.428;2023-04-12T03:53:00;101070.38;;;5.23;71.67
46045;BME280;31781;54.094;13.428;2023-04-12T03:55:04;101062.41;;;5.21;71.40
46045;BME280;31781;54.094;13.428;2023-04-12T03:57:06;101067.00;;;5.21;71.82
46045;BME280;31781;54.094;13.428;2023-04-12T03:59:09;101063.63;;;5.19;72.34
46045;BME280;31781;54.094;13.428;2023-04-12T04:01:11;101063.78;;;5.17;71.70
46045;BME280;31781;54.094;13.428;2023-04-12T04:03:13;101062.09;;;5.16;71.95
46045;BME280;31781;54.094;13.428;2023-04-12T04:05:15;101060.41;;;5.15;72.46
46045;BME280;31781;54.094;13.428;2023-04-12T04:07:17;101059.56;;;5.15;71.89
46045;BME280;31781;54.094;13.428;2023-04-12T04:09:19;101060.56;;;5.14;71.86
46045;BME280;31781;54.094;13.428;2023-04-12T04:11:22;101058.03;;;5.12;72.48
46045;BME280;31781;54.094;13.428;2023-04-12T04:13:24;101054.50;;;5.12;72.56
46045;BME280;31781;54.094;13.428;2023-04-12T04:15:26;101048.25;;;5.11;71.94
46045;BME280;31781;54.094;13.428;2023-04-12T04:17:28;101051.97;;;5.10;72.43
46045;BME280;31781;54.094;13.428;2023-04-12T04:19:30;101052.13;;;5.09;72.41
46045;BME280;31781;54.094;13.428;2023-04-12T04:21:32;101046.75;;;5.09;72.56
46045;BME280;31781;54.094;13.428;2023-04-12T04:23:34;101050.63;;;5.06;72.37
46045;BME280;31781;54.094;13.428;2023-04-12T04:25:35;101048.94;;;5.05;71.85
46045;BME280;31781;54.094;13.428;2023-04-12T04:27:40;101041.84;;;5.04;72.40
46045;BME280;31781;54.094;13.428;2023-04-12T04:29:44;101038.31;;;5.04;72.27
46045;BME280;31781;54.094;13.428;2023-04-12T04:31:46;101034.75;;;5.03;72.35
46045;BME280;31781;54.094;13.428;2023-04-12T04:33:47;101036.59;;;5.03;72.20
46045;BME280;31781;54.094;13.428;2023-04-12T04:35:49;101027.00;;;5.00;72.33
46045;BME280;31781;54.094;13.428;2023-04-12T04:37:51;101034.09;;;5.01;72.25
46045;BME280;31781;54.094;13.428;2023-04-12T04:39:53;101028.00;;;4.99;71.96
46045;BME280;31781;54.094;13.428;2023-04-12T04:41:55;101029.03;;;4.98;72.09
46045;BME280;31781;54.094;13.428;2023-04-12T04:43:58;101030.88;;;4.98;72.66
46045;BME280;31781;54.094;13.428;2023-04-12T04:46:00;101026.50;;;4.97;72.09
46045;BME280;31781;54.094;13.428;2023-04-12T04:48:02;101026.69;;;4.95;71.90
46045;BME280;31781;54.094;13.428;2023-04-12T04:50:05;101032.06;;;4.95;72.62
46045;BME280;31781;54.094;13.428;2023-04-12T04:52:07;101020.44;;;4.95;72.91
46045;BME280;31781;54.094;13.428;2023-04-12T04:54:09;101024.97;;;4.94;72.39
46045;BME280;31781;54.094;13.428;2023-04-12T04:56:10;101024.97;;;4.94;72.88
46045;BME280;31781;54.094;13.428;2023-04-12T04:58:14;101019.59;;;4.94;72.86
46045;BME280;31781;54.094;13.428;2023-04-12T05:00:18;101024.97;;;4.94;72.60
46045;BME280;31781;54.094;13.428;2023-04-12T05:02:20;101021.44;;;4.94;72.59
46045;BME280;31781;54.094;13.428;2023-04-12T05:04:22;101015.91;;;4.95;72.73
46045;BME280;31781;54.094;13.428;2023-04-12T05:06:23;101020.25;;;4.96;72.48
46045;BME280;31781;54.094;13.428;2023-04-12T05:08:25;101023.78;;;4.97;72.74
46045;BME280;31781;54.094;13.428;2023-04-12T05:10:28;101022.78;;;4.98;72.61
46045;BME280;31781;54.094;13.428;2023-04-12T05:12:30;101018.06;;;5.00;72.65
46045;BME280;31781;54.094;13.428;2023-04-12T05:14:32;101022.47;;;5.01;72.54
46045;BME280;31781;54.094;13.428;2023-04-12T05:16:49;101032.06;;;5.03;73.44
46045;BME280;31781;54.094;13.428;2023-04-12T05:18:51;101030.22;;;5.04;72.71
46045;BME280;31781;54.094;13.428;2023-04-12T05:20:52;101035.25;;;5.07;73.18
46045;BME280;31781;54.094;13.428;2023-04-12T05:22:54;101032.41;;;5.08;73.42
46045;BME280;31781;54.094;13.428;2023-04-12T05:24:56;101032.06;;;5.11;73.36
46045;BME280;31781;54.094;13.428;2023-04-12T05:26:58;101026.53;;;5.13;72.89
46045;BME280;31781;54.094;13.428;2023-04-12T05:28:59;101032.44;;;5.16;73.06
46045;BME280;31781;54.094;13.428;2023-04-12T05:31:01;101029.38;;;5.19;73.04
46045;BME280;31781;54.094;13.428;2023-04-12T05:33:05;101026.34;;;5.22;72.73
46045;BME280;31781;54.094;13.428;2023-04-12T05:35:07;101026.00;;;5.25;73.13
46045;BME280;31781;54.094;13.428;2023-04-12T05:37:09;101021.97;;;5.29;73.29
46045;BME280;31781;54.094;13.428;2023-04-12T05:39:11;101021.63;;;5.32;73.58
46045;BME280;31781;54.094;13.428;2023-04-12T05:41:12;101018.28;;;5.38;73.49
46045;BME280;31781;54.094;13.428;2023-04-12T05:43:14;101019.63;;;5.43;73.96
46045;BME280;31781;54.094;13.428;2023-04-12T05:45:16;101013.53;;;5.49;73.80
46045;BME280;31781;54.094;13.428;2023-04-12T05:47:19;101022.84;;;5.54;73.70
46045;BME280;31781;54.094;13.428;2023-04-12T05:49:23;101014.03;;;5.60;74.09
46045;BME280;31781;54.094;13.428;2023-04-12T05:51:25;101017.91;;;5.66;73.61
46045;BME280;31781;54.094;13.428;2023-04-12T05:53:41;101012.50;;;5.74;73.62
46045;BME280;31781;54.094;13.428;2023-04-12T05:55:43;101010.97;;;5.79;74.42
46045;BME280;31781;54.094;13.428;2023-04-12T05:57:45;101001.22;;;5.86;73.84
46045;BME280;31781;54.094;13.428;2023-04-12T05:59:47;101011.81;;;5.96;74.66
46045;BME280;31781;54.094;13.428;2023-04-12T06:01:48;100996.59;;;6.03;74.73
46045;BME280;31781;54.094;13.428;2023-04-12T06:03:50;100998.44;;;6.11;74.17
46045;BME280;31781;54.094;13.428;2023-04-12T06:05:55;100997.19;;;6.21;74.44
46045;BME280;31781;54.094;13.428;2023-04-12T06:07:57;100991.78;;;6.29;74.51
46045;BME280;31781;54.094;13.428;2023-04-12T06:09:59;100993.25;;;6.40;74.47
46045;BME280;31781;54.094;13.428;2023-04-12T06:12:01;100987.81;;;6.48;75.27
46045;BME280;31781;54.094;13.428;2023-04-12T06:14:02;100981.16;;;6.59;74.78
46045;BME280;31781;54.094;13.428;2023-04-12T06:16:05;100975.53;;;6.68;74.61
46045;BME280;31781;54.094;13.428;2023-04-12T06:18:07;100966.16;;;6.79;74.74
46045;BME280;31781;54.094;13.428;2023-04-12T06:20:10;100962.22;;;6.90;75.24
46045;BME280;31781;54.094;13.428;2023-04-12T06:22:14;100956.38;;;7.01;74.32
46045;BME280;31781;54.094;13.428;2023-04-12T06:24:15;100958.81;;;7.10;74.58
46045;BME280;31781;54.094;13.428;2023-04-12T06:26:17;100952.34;;;7.19;74.33
46045;BME280;31781;54.094;13.428;2023-04-12T06:28:19;100954.78;;;7.29;74.40
46045;BME280;31781;54.094;13.428;2023-04-12T06:30:20;100951.00;;;7.38;73.76
46045;BME280;31781;54.094;13.428;2023-04-12T06:32:22;100955.13;;;7.49;74.57
46045;BME280;31781;54.094;13.428;2023-04-12T06:34:24;100954.84;;;7.58;73.04
46045;BME280;31781;54.094;13.428;2023-04-12T06:36:26;100948.97;;;7.69;73.09
46045;BME280;31781;54.094;13.428;2023-04-12T06:38:29;100940.59;;;7.79;73.19
46045;BME280;31781;54.094;13.428;2023-04-12T06:40:32;100940.28;;;7.89;73.06
46045;BME280;31781;54.094;13.428;2023-04-12T06:42:34;100934.59;;;7.98;72.98
46045;BME280;31781;54.094;13.428;2023-04-12T06:44:35;100931.59;;;8.08;73.20
46045;BME280;31781;54.094;13.428;2023-04-12T06:46:37;100938.41;;;8.18;71.70
46045;BME280;31781;54.094;13.428;2023-04-12T06:48:39;100940.00;;;8.27;71.69
46045;BME280;31781;54.094;13.428;2023-04-12T06:50:43;100939.72;;;8.37;71.30
46045;BME280;31781;54.094;13.428;2023-04-12T06:52:45;100934.00;;;8.47;72.02
46045;BME280;31781;54.094;13.428;2023-04-12T06:54:49;100924.50;;;8.57;70.66
46045;BME280;31781;54.094;13.428;2023-04-12T06:56:51;100928.78;;;8.66;69.74
46045;BME280;31781;54.094;13.428;2023-04-12T06:58:53;100928.47;;;8.76;69.11
46045;BME280;31781;54.094;13.428;2023-04-12T07:01:03;100921.72;;;8.87;69.33
46045;BME280;31781;54.094;13.428;2023-04-12T07:03:05;100929.69;;;8.95;67.97
46045;BME280;31781;54.094;13.428;2023-04-12T07:05:07;100926.69;;;9.04;69.01
46045;BME280;31781;54.094;13.428;2023-04-12T07:07:09;100920.91;;;9.14;68.25
46045;BME280;31781;54.094;13.428;2023-04-12T07:09:11;100923.94;;;9.25;68.34
46045;BME280;31781;54.094;13.428;2023-04-12T07:11:14;100913.38;;;9.37;68.33
46045;BME280;31781;54.094;13.428;2023-04-12T07:13:22;100916.41;;;9.49;68.72
46045;BME280;31781;54.094;13.428;2023-04-12T07:15:24;100922.94;;;9.61;68.55
46045;BME280;31781;54.094;13.428;2023-04-12T07:17:25;100922.41;;;9.72;67.84
46045;BME280;31781;54.094;13.428;2023-04-12T07:19:28;100912.66;;;9.84;68.53
46045;BME280;31781;54.094;13.428;2023-04-12T07:21:29;100905.81;;;9.95;66.57
46045;BME280;31781;54.094;13.428;2023-04-12T07:23:31;100910.50;;;10.07;67.46
46045;BME280;31781;54.094;13.428;2023-04-12T07:25:35;100906.19;;;10.19;66.56
46045;BME280;31781;54.094;13.428;2023-04-12T07:27:39;100902.91;;;10.31;66.44
46045;BME280;31781;54.094;13.428;2023-04-12T07:29:40;100905.84;;;10.42;65.73
46045;BME280;31781;54.094;13.428;2023-04-12T07:31:42;100908.81;;;10.54;65.26
46045;BME280;31781;54.094;13.428;2023-04-12T07:33:44;100900.06;;;10.65;64.33
46045;BME280;31781;54.094;13.428;2023-04-12T07:35:46;100894.84;;;10.77;64.44
46045;BME280;31781;54.094;13.428;2023-04-12T07:37:48;100902.22;;;10.89;63.85
46045;BME280;31781;54.094;13.428;2023-04-12T07:39:50;100901.38;;;11.02;63.81
46045;BME280;31781;54.094;13.428;2023-04-12T07:41:52;100899.72;;;11.14;63.68
46045;BME280;31781;54.094;13.428;2023-04-12T07:43:55;100890.91;;;11.25;62.43
46045;BME280;31781;54.094;13.428;2023-04-12T07:45:57;100896.56;;;11.37;63.09
46045;BME280;31781;54.094;13.428;2023-04-12T07:47:58;100901.16;;;11.49;62.74
46045;BME280;31781;54.094;13.428;2023-04-12T07:50:00;100895.91;;;11.61;62.80
46045;BME280;31781;54.094;13.428;2023-04-12T07:52:03;100890.66;;;11.73;61.46
46045;BME280;31781;54.094;13.428;2023-04-12T07:54:04;100893.59;;;11.84;60.22
46045;BME280;31781;54.094;13.428;2023-04-12T07:56:07;100895.66;;;11.95;59.70
46045;BME280;31781;54.094;13.428;2023-04-12T07:58:09;100879.47;;;12.07;59.67
46045;BME280;31781;54.094;13.428;2023-04-12T08:00:13;100871.88;;;12.15;60.23
46045;BME280;31781;54.094;13.428;2023-04-12T08:02:15;100868.69;;;12.25;59.36
46045;BME280;31781;54.094;13.428;2023-04-12T08:04:16;100859.19;;;12.34;57.63
46045;BME280;31781;54.094;13.428;2023-04-12T08:06:18;100873.22;;;12.44;56.54
46045;BME280;31781;54.094;13.428;2023-04-12T08:08:21;100862.84;;;12.53;56.12
46045;BME280;31781;54.094;13.428;2023-04-12T08:10:22;100857.53;;;12.64;57.07
46045;BME280;31781;54.094;13.428;2023-04-12T08:12:24;100859.56;;;12.76;55.79
46045;BME280;31781;54.094;13.428;2023-04-12T08:14:26;100849.81;;;12.86;55.53
46045;BME280;31781;54.094;13.428;2023-04-12T08:16:29;100848.91;;;12.99;55.73
46045;BME280;31781;54.094;13.428;2023-04-12T08:18:31;100859.97;;;13.10;53.80
46045;BME280;31781;54.094;13.428;2023-04-12T08:20:33;100850.22;;;13.21;54.85
46045;BME280;31781;54.094;13.428;2023-04-12T08:22:35;100841.50;;;13.31;53.26
46045;BME280;31781;54.094;13.428;2023-04-12T08:24:36;100841.22;;;13.39;52.98
46045;BME280;31781;54.094;13.428;2023-04-12T08:26:38;100848.69;;;13.50;52.95
46045;BME280;31781;54.094;13.428;2023-04-12T08:28:40;100842.72;;;13.59;52.00
46045;BME280;31781;54.094;13.428;2023-04-12T08:30:42;100843.00;;;13.70;51.91
46045;BME280;31781;54.094;13.428;2023-04-12T08:32:45;100837.25;;;13.78;52.28
46045;BME280;31781;54.094;13.428;2023-04-12T08:34:47;100832.28;;;13.86;51.79
46045;BME280;31781;54.094;13.428;2023-04-12T08:36:49;100830.69;;;13.97;51.04
46045;BME280;31781;54.094;13.428;2023-04-12T08:38:50;100835.38;;;14.08;50.46
46045;BME280;31781;54.094;13.428;2023-04-12T08:40:53;100829.97;;;14.20;50.41
46045;BME280;31781;54.094;13.428;2023-04-12T08:42:55;100822.88;;;14.30;49.67
46045;BME280;31781;54.094;13.428;2023-04-12T08:45:03;100816.91;;;14.40;51.42
46045;BME280;31781;54.094;13.428;2023-04-12T08:47:06;100827.28;;;14.49;50.52
46045;BME280;31781;54.094;13.428;2023-04-12T08:49:09;100813.03;;;14.59;49.77
46045;BME280;31781;54.094;13.428;2023-04-12T08:51:12;100817.94;;;14.69;48.90
46045;BME280;31781;54.094;13.428;2023-04-12T08:53:14;100814.63;;;14.78;48.83
46045;BME280;31781;54.094;13.428;2023-04-12T08:55:16;100812.38;;;14.87;50.01
46045;BME280;31781;54.094;13.428;2023-04-12T08:57:18;100808.81;;;14.98;49.15
46045;BME280;31781;54.094;13.428;2023-04-12T08:59:20;100804.41;;;15.08;49.46
46045;BME280;31781;54.094;13.428;2023-04-12T09:01:22;100809.34;;;15.18;49.47
46045;BME280;31781;54.094;13.428;2023-04-12T09:03:24;100802.41;;;15.27;48.75
46045;BME280;31781;54.094;13.428;2023-04-12T09:05:29;100800.72;;;15.38;49.67
46045;BME280;31781;54.094;13.428;2023-04-12T09:07:32;100791.09;;;15.47;47.27
46045;BME280;31781;54.094;13.428;2023-04-12T09:09:42;100784.16;;;15.56;49.81
46045;BME280;31781;54.094;13.428;2023-04-12T09:11:44;100781.91;;;15.65;48.29
46045;BME280;31781;54.094;13.428;2023-04-12T09:13:45;100776.03;;;15.73;47.84
46045;BME280;31781;54.094;13.428;2023-04-12T09:15:48;100757.66;;;15.85;46.90
46045;BME280;31781;54.094;13.428;2023-04-12T09:18:02;100766.66;;;15.97;50.18
46045;BME280;31781;54.094;13.428;2023-04-12T09:20:23;100759.22;;;16.09;49.93
46045;BME280;31781;54.094;13.428;2023-04-12T09:22:37;100753.34;;;16.17;48.43
46045;BME280;31781;54.094;13.428;2023-04-12T09:24:45;100751.63;;;16.28;48.58
46045;BME280;31781;54.094;13.428;2023-04-12T09:26:47;100747.66;;;16.35;46.57
46045;BME280;31781;54.094;13.428;2023-04-12T09:28:49;100743.16;;;16.46;47.29
46045;BME280;31781;54.094;13.428;2023-04-12T09:30:51;100755.78;;;16.59;45.96
46045;BME280;31781;54.094;13.428;2023-04-12T09:32:53;100739.81;;;16.72;45.76
46045;BME280;31781;54.094;13.428;2023-04-12T09:34:56;100740.81;;;16.83;44.69
46045;BME280;31781;54.094;13.428;2023-04-12T09:37:11;100737.13;;;16.94;47.56
46045;BME280;31781;54.094;13.428;2023-04-12T09:39:14;100733.03;;;16.96;44.82
46045;BME280;31781;54.094;13.428;2023-04-12T09:41:17;100733.13;;;17.01;44.24
46045;BME280;31781;54.094;13.428;2023-04-12T09:43:36;100725.88;;;17.12;47.61
46045;BME280;31781;54.094;13.428;2023-04-12T09:45:38;100718.22;;;17.14;44.07
46045;BME280;31781;54.094;13.428;2023-04-12T09:47:42;100724.09;;;17.23;45.12
46045;BME280;31781;54.094;13.428;2023-04-12T09:49:44;100713.19;;;17.28;43.71
46045;BME280;31781;54.094;13.428;2023-04-12T09:51:50;100704.72;;;17.34;45.31
46045;BME280;31781;54.094;13.428;2023-04-12T09:53:52;100699.03;;;17.41;43.42
46045;BME280;31781;54.094;13.428;2023-04-12T09:55:58;100689.78;;;17.47;43.87
46045;BME280;31781;54.094;13.428;2023-04-12T09:58:01;100688.50;;;17.55;43.26
46045;BME280;31781;54.094;13.428;2023-04-12T10:00:06;100692.44;;;17.59;43.25
46045;BME280;31781;54.094;13.428;2023-04-12T10:02:13;100694.47;;;17.68;44.34
46045;BME280;31781;54.094;13.428;2023-04-12T10:04:16;100679.44;;;17.76;42.49
46045;BME280;31781;54.094;13.428;2023-04-12T10:06:19;100674.31;;;17.84;41.72
46045;BME280;31781;54.094;13.428;2023-04-12T10:08:22;100668.06;;;17.94;41.56
46045;BME280;31781;54.094;13.428;2023-04-12T10:10:24;100669.53;;;18.02;41.64
46045;BME280;31781;54.094;13.428;2023-04-12T10:12:28;100667.16;;;18.10;41.91
46045;BME280;31781;54.094;13.428;2023-04-12T10:14:31;100661.66;;;18.15;41.44
46045;BME280;31781;54.094;13.428;2023-04-12T10:16:33;100671.38;;;18.23;41.26
46045;BME280;31781;54.094;13.428;2023-04-12T10:18:36;100660.13;;;18.24;41.08
46045;BME280;31781;54.094;13.428;2023-04-12T10:20:39;100675.28;;;18.27;41.42
46045;BME280;31781;54.094;13.428;2023-04-12T10:22:42;100652.72;;;18.30;39.92
46045;BME280;31781;54.094;13.428;2023-04-12T10:24:44;100648.94;;;18.36;40.44
46045;BME280;31781;54.094;13.428;2023-04-12T10:26:47;100648.41;;;18.44;40.35
46045;BME280;31781;54.094;13.428;2023-04-12T10:29:25;100642.47;;;18.52;42.75
46045;BME280;31781;54.094;13.428;2023-04-12T10:31:29;100631.50;;;18.57;39.56
46045;BME280;31781;54.094;13.428;2023-04-12T10:33:31;100637.84;;;18.63;39.74
46045;BME280;31781;54.094;13.428;2023-04-12T10:35:51;100621.94;;;18.70;42.28
46045;BME280;31781;54.094;13.428;2023-04-12T10:38:02;100618.94;;;18.76;40.88
46045;BME280;31781;54.094;13.428;2023-04-12T10:40:06;100616.22;;;18.81;39.48
46045;BME280;31781;54.094;13.428;2023-04-12T10:42:22;100612.94;;;18.84;40.80